sensor_id;sensor_type;location;lat;lon;timestamp;P1;durP1;ratioP1;P2;durP2;ratioP2
37701;SDS011;23548;51.196;6.838;2022-11-15T00:01:49;15.07;;;10.30;;
37701;SDS011;23548;51.196;6.838;2022-11-15T00:04:15;13.63;;;10.05;;
37701;SDS011;23548;51.196;6.838;2022-11-15T00:06:41;17.90;;;11.30;;
37701;SDS011;23548;51.196;6.838;2022-11-15T00:09:06;14.52;;;10.75;;
37701;SDS011;23548;51.196;6.838;2022-11-15T00:11:32;14.18;;;10.68;;
37701;SDS011;23548;51.196;6.838;2022-11-15T00:13:58;15.77;;;10.70;;
37701;SDS011;23548;51.196;6.838;2022-11-15T00:16:24;15.98;;;11.00;;
37701;SDS011;23548;51.196;6.838;2022-11-15T00:18:50;16.98;;;11.25;;
37701;SDS011;23548;51.196;6.838;2022-11-15T00:21:16;19.27;;;11.02;;
37701;SDS011;23548;51.196;6.838;2022-11-15T00:23:42;15.48;;;10.68;;
37701;SDS011;23548;51.196;6.838;2022-11-15T00:26:10;15.80;;;11.32;;
37701;SDS011;23548;51.196;6.838;2022-11-15T00:28:37;15.07;;;10.75;;
37701;SDS011;23548;51.196;6.838;2022-11-15T00:31:04;16.95;;;11.35;;
37701;SDS011;23548;51.196;6.838;2022-11-15T00:33:32;21.08;;;10.82;;
37701;SDS011;23548;51.196;6.838;2022-11-15T00:36:05;15.27;;;11.10;;
37701;SDS011;23548;51.196;6.838;2022-11-15T00:38:34;21.20;;;11.13;;
37701;SDS011;23548;51.196;6.838;2022-11-15T00:41:01;15.98;;;10.85;;
37701;SDS011;23548;51.196;6.838;2022-11-15T00:43:29;19.48;;;10.82;;
37701;SDS011;23548;51.196;6.838;2022-11-15T00:45:55;17.95;;;11.65;;
37701;SDS011;23548;51.196;6.838;2022-11-15T00:48:21;18.63;;;11.23;;
37701;SDS011;23548;51.196;6.838;2022-11-15T00:50:47;14.85;;;11.05;;
37701;SDS011;23548;51.196;6.838;2022-11-15T00:53:14;19.40;;;11.32;;
37701;SDS011;23548;51.196;6.838;2022-11-15T00:55:40;14.60;;;11.02;;
37701;SDS011;23548;51.196;6.838;2022-11-15T00:58:06;14.93;;;10.02;;
37701;SDS011;23548;51.196;6.838;2022-11-15T01:00:32;17.65;;;11.38;;
37701;SDS011;23548;51.196;6.838;2022-11-15T01:02:59;14.43;;;10.82;;
37701;SDS011;23548;51.196;6.838;2022-11-15T01:05:26;15.20;;;10.02;;
37701;SDS011;23548;51.196;6.838;2022-11-15T01:07:52;14.13;;;10.32;;
37701;SDS011;23548;51.196;6.838;2022-11-15T01:10:19;14.23;;;10.73;;
37701;SDS011;23548;51.196;6.838;2022-11-15T01:12:45;15.68;;;10.77;;
37701;SDS011;23548;51.196;6.838;2022-11-15T01:15:11;16.45;;;10.70;;
37701;SDS011;23548;51.196;6.838;2022-11-15T01:17:37;14.80;;;10.05;;
37701;SDS011;23548;51.196;6.838;2022-11-15T01:20:03;16.25;;;10.48;;
37701;SDS011;23548;51.196;6.838;2022-11-15T01:22:29;16.75;;;11.68;;
37701;SDS011;23548;51.196;6.838;2022-11-15T01:24:55;17.20;;;10.18;;
37701;SDS011;23548;51.196;6.838;2022-11-15T01:27:21;17.88;;;10.90;;
37701;SDS011;23548;51.196;6.838;2022-11-15T01:29:47;12.73;;;9.80;;
37701;SDS011;23548;51.196;6.838;2022-11-15T01:32:13;15.48;;;9.75;;
37701;SDS011;23548;51.196;6.838;2022-11-15T01:34:38;16.42;;;11.20;;
37701;SDS011;23548;51.196;6.838;2022-11-15T01:37:04;12.82;;;9.70;;
37701;SDS011;23548;51.196;6.838;2022-11-15T01:39:30;14.55;;;10.77;;
37701;SDS011;23548;51.196;6.838;2022-11-15T01:41:56;14.32;;;10.25;;
37701;SDS011;23548;51.196;6.838;2022-11-15T01:47:00;16.33;;;10.88;;
37701;SDS011;23548;51.196;6.838;2022-11-15T01:49:30;14.93;;;10.35;;
37701;SDS011;23548;51.196;6.838;2022-11-15T01:51:59;17.02;;;10.63;;
37701;SDS011;23548;51.196;6.838;2022-11-15T01:54:27;16.02;;;10.82;;
37701;SDS011;23548;51.196;6.838;2022-11-15T01:56:55;18.73;;;10.68;;
37701;SDS011;23548;51.196;6.838;2022-11-15T01:59:31;17.48;;;10.70;;
37701;SDS011;23548;51.196;6.838;2022-11-15T02:01:57;15.52;;;10.95;;
37701;SDS011;23548;51.196;6.838;2022-11-15T02:04:31;17.38;;;11.35;;
37701;SDS011;23548;51.196;6.838;2022-11-15T02:06:59;15.35;;;10.45;;
37701;SDS011;23548;51.196;6.838;2022-11-15T02:09:28;15.63;;;10.70;;
37701;SDS011;23548;51.196;6.838;2022-11-15T02:11:54;14.85;;;10.48;;
37701;SDS011;23548;51.196;6.838;2022-11-15T02:14:21;14.93;;;10.73;;
37701;SDS011;23548;51.196;6.838;2022-11-15T02:36:16;15.00;;;10.48;;
37701;SDS011;23548;51.196;6.838;2022-11-15T02:39:02;15.93;;;11.23;;
37701;SDS011;23548;51.196;6.838;2022-11-15T02:44:08;17.52;;;11.20;;
37701;SDS011;23548;51.196;6.838;2022-11-15T02:46:50;15.38;;;10.93;;
37701;SDS011;23548;51.196;6.838;2022-11-15T02:49:50;15.50;;;10.70;;
37701;SDS011;23548;51.196;6.838;2022-11-15T02:52:22;16.33;;;11.30;;
37701;SDS011;23548;51.196;6.838;2022-11-15T02:54:58;15.15;;;10.88;;
37701;SDS011;23548;51.196;6.838;2022-11-15T02:57:32;18.25;;;11.07;;
37701;SDS011;23548;51.196;6.838;2022-11-15T03:00:31;16.85;;;10.85;;
37701;SDS011;23548;51.196;6.838;2022-11-15T03:06:03;20.73;;;12.35;;
37701;SDS011;23548;51.196;6.838;2022-11-15T03:08:31;16.50;;;10.88;;
37701;SDS011;23548;51.196;6.838;2022-11-15T03:18:59;17.95;;;10.68;;
37701;SDS011;23548;51.196;6.838;2022-11-15T03:21:31;16.80;;;10.70;;
37701;SDS011;23548;51.196;6.838;2022-11-15T03:24:00;16.65;;;10.73;;
37701;SDS011;23548;51.196;6.838;2022-11-15T03:26:28;18.15;;;11.52;;
37701;SDS011;23548;51.196;6.838;2022-11-15T03:28:59;19.08;;;10.50;;
37701;SDS011;23548;51.196;6.838;2022-11-15T03:31:48;17.08;;;10.77;;
37701;SDS011;23548;51.196;6.838;2022-11-15T03:36:49;16.17;;;10.77;;
37701;SDS011;23548;51.196;6.838;2022-11-15T03:39:16;18.10;;;11.23;;
37701;SDS011;23548;51.196;6.838;2022-11-15T03:44:16;15.60;;;10.13;;
37701;SDS011;23548;51.196;6.838;2022-11-15T03:50:02;17.65;;;10.00;;
37701;SDS011;23548;51.196;6.838;2022-11-15T03:52:33;18.92;;;10.57;;
37701;SDS011;23548;51.196;6.838;2022-11-15T03:55:00;15.40;;;10.25;;
37701;SDS011;23548;51.196;6.838;2022-11-15T03:57:27;15.18;;;9.80;;
37701;SDS011;23548;51.196;6.838;2022-11-15T03:59:53;17.42;;;10.10;;
37701;SDS011;23548;51.196;6.838;2022-11-15T04:02:19;13.43;;;10.07;;
37701;SDS011;23548;51.196;6.838;2022-11-15T04:04:45;15.73;;;9.93;;
37701;SDS011;23548;51.196;6.838;2022-11-15T04:07:11;14.65;;;9.18;;
37701;SDS011;23548;51.196;6.838;2022-11-15T04:09:36;14.30;;;9.57;;
37701;SDS011;23548;51.196;6.838;2022-11-15T04:12:21;14.82;;;10.27;;
37701;SDS011;23548;51.196;6.838;2022-11-15T04:14:59;14.20;;;9.63;;
37701;SDS011;23548;51.196;6.838;2022-11-15T04:17:52;14.88;;;9.82;;
37701;SDS011;23548;51.196;6.838;2022-11-15T04:20:21;12.30;;;9.07;;
37701;SDS011;23548;51.196;6.838;2022-11-15T04:23:08;10.82;;;8.52;;
37701;SDS011;23548;51.196;6.838;2022-11-15T04:25:58;11.30;;;9.07;;
37701;SDS011;23548;51.196;6.838;2022-11-15T04:31:01;13.63;;;8.90;;
37701;SDS011;23548;51.196;6.838;2022-11-15T04:33:27;14.85;;;9.40;;
37701;SDS011;23548;51.196;6.838;2022-11-15T04:35:52;13.35;;;9.15;;
37701;SDS011;23548;51.196;6.838;2022-11-15T04:38:37;13.32;;;9.55;;
37701;SDS011;23548;51.196;6.838;2022-11-15T04:41:03;14.75;;;9.85;;
37701;SDS011;23548;51.196;6.838;2022-11-15T04:43:28;12.73;;;9.63;;
37701;SDS011;23548;51.196;6.838;2022-11-15T04:45:55;14.05;;;9.48;;
37701;SDS011;23548;51.196;6.838;2022-11-15T04:48:20;14.48;;;10.00;;
37701;SDS011;23548;51.196;6.838;2022-11-15T04:50:49;13.98;;;10.45;;
37701;SDS011;23548;51.196;6.838;2022-11-15T04:53:15;15.75;;;10.73;;
37701;SDS011;23548;51.196;6.838;2022-11-15T04:55:43;14.65;;;10.30;;
37701;SDS011;23548;51.196;6.838;2022-11-15T04:58:10;16.10;;;9.93;;
37701;SDS011;23548;51.196;6.838;2022-11-15T05:00:36;14.05;;;10.68;;
37701;SDS011;23548;51.196;6.838;2022-11-15T05:03:01;15.32;;;10.70;;
37701;SDS011;23548;51.196;6.838;2022-11-15T05:05:45;14.18;;;10.00;;
37701;SDS011;23548;51.196;6.838;2022-11-15T05:08:11;16.17;;;11.02;;
37701;SDS011;23548;51.196;6.838;2022-11-15T05:10:37;13.88;;;11.05;;
37701;SDS011;23548;51.196;6.838;2022-11-15T05:13:02;16.08;;;11.05;;
37701;SDS011;23548;51.196;6.838;2022-11-15T05:15:28;13.85;;;10.60;;
37701;SDS011;23548;51.196;6.838;2022-11-15T05:17:58;16.40;;;10.40;;
37701;SDS011;23548;51.196;6.838;2022-11-15T05:20:25;14.18;;;10.70;;
37701;SDS011;23548;51.196;6.838;2022-11-15T05:22:52;14.85;;;10.45;;
37701;SDS011;23548;51.196;6.838;2022-11-15T05:25:19;13.48;;;10.35;;
37701;SDS011;23548;51.196;6.838;2022-11-15T05:27:44;15.32;;;10.63;;
37701;SDS011;23548;51.196;6.838;2022-11-15T05:30:10;13.52;;;10.18;;
37701;SDS011;23548;51.196;6.838;2022-11-15T05:32:36;17.02;;;10.20;;
37701;SDS011;23548;51.196;6.838;2022-11-15T05:35:02;11.90;;;9.93;;
37701;SDS011;23548;51.196;6.838;2022-11-15T05:37:30;15.73;;;11.02;;
37701;SDS011;23548;51.196;6.838;2022-11-15T05:39:56;16.50;;;10.63;;
37701;SDS011;23548;51.196;6.838;2022-11-15T05:42:21;15.68;;;11.10;;
37701;SDS011;23548;51.196;6.838;2022-11-15T05:44:47;14.25;;;10.05;;
37701;SDS011;23548;51.196;6.838;2022-11-15T05:47:21;16.77;;;11.27;;
37701;SDS011;23548;51.196;6.838;2022-11-15T05:49:50;14.13;;;10.90;;
37701;SDS011;23548;51.196;6.838;2022-11-15T05:52:19;13.00;;;10.48;;
37701;SDS011;23548;51.196;6.838;2022-11-15T05:54:47;15.10;;;10.00;;
37701;SDS011;23548;51.196;6.838;2022-11-15T05:57:14;13.82;;;10.82;;
37701;SDS011;23548;51.196;6.838;2022-11-15T05:59:40;12.80;;;9.38;;
37701;SDS011;23548;51.196;6.838;2022-11-15T06:02:08;13.68;;;10.95;;
37701;SDS011;23548;51.196;6.838;2022-11-15T06:04:34;16.15;;;10.77;;
37701;SDS011;23548;51.196;6.838;2022-11-15T06:07:00;12.27;;;9.45;;
37701;SDS011;23548;51.196;6.838;2022-11-15T06:09:26;12.73;;;8.73;;
37701;SDS011;23548;51.196;6.838;2022-11-15T06:11:52;10.23;;;7.80;;
37701;SDS011;23548;51.196;6.838;2022-11-15T06:14:17;12.50;;;8.50;;
37701;SDS011;23548;51.196;6.838;2022-11-15T06:16:43;10.05;;;7.97;;
37701;SDS011;23548;51.196;6.838;2022-11-15T06:19:09;8.73;;;7.40;;
37701;SDS011;23548;51.196;6.838;2022-11-15T06:21:35;11.23;;;8.02;;
37701;SDS011;23548;51.196;6.838;2022-11-15T06:24:01;12.07;;;8.18;;
37701;SDS011;23548;51.196;6.838;2022-11-15T06:26:27;9.82;;;7.95;;
37701;SDS011;23548;51.196;6.838;2022-11-15T06:28:53;10.88;;;7.78;;
37701;SDS011;23548;51.196;6.838;2022-11-15T06:31:18;9.20;;;7.72;;
37701;SDS011;23548;51.196;6.838;2022-11-15T06:33:44;9.45;;;7.55;;
37701;SDS011;23548;51.196;6.838;2022-11-15T06:36:11;10.65;;;7.15;;
37701;SDS011;23548;51.196;6.838;2022-11-15T06:38:38;9.10;;;8.05;;
37701;SDS011;23548;51.196;6.838;2022-11-15T06:41:05;10.50;;;7.70;;
37701;SDS011;23548;51.196;6.838;2022-11-15T06:43:33;13.10;;;7.60;;
37701;SDS011;23548;51.196;6.838;2022-11-15T06:46:00;12.93;;;7.93;;
37701;SDS011;23548;51.196;6.838;2022-11-15T06:48:27;11.45;;;8.00;;
37701;SDS011;23548;51.196;6.838;2022-11-15T06:50:54;14.07;;;7.45;;
37701;SDS011;23548;51.196;6.838;2022-11-15T06:53:22;13.27;;;10.18;;
37701;SDS011;23548;51.196;6.838;2022-11-15T06:55:48;13.05;;;7.95;;
37701;SDS011;23548;51.196;6.838;2022-11-15T06:58:14;11.80;;;6.90;;
37701;SDS011;23548;51.196;6.838;2022-11-15T07:00:40;10.57;;;6.95;;
37701;SDS011;23548;51.196;6.838;2022-11-15T07:03:06;8.70;;;7.30;;
37701;SDS011;23548;51.196;6.838;2022-11-15T07:05:33;10.20;;;6.85;;
37701;SDS011;23548;51.196;6.838;2022-11-15T07:07:59;9.50;;;6.22;;
37701;SDS011;23548;51.196;6.838;2022-11-15T07:10:25;10.45;;;6.28;;
37701;SDS011;23548;51.196;6.838;2022-11-15T07:12:52;8.55;;;6.20;;
37701;SDS011;23548;51.196;6.838;2022-11-15T07:15:18;11.73;;;5.97;;
37701;SDS011;23548;51.196;6.838;2022-11-15T07:17:45;8.23;;;5.63;;
37701;SDS011;23548;51.196;6.838;2022-11-15T07:20:11;7.03;;;5.15;;
37701;SDS011;23548;51.196;6.838;2022-11-15T07:22:41;11.38;;;5.70;;
37701;SDS011;23548;51.196;6.838;2022-11-15T07:25:07;9.45;;;5.57;;
37701;SDS011;23548;51.196;6.838;2022-11-15T07:27:34;16.85;;;5.82;;
37701;SDS011;23548;51.196;6.838;2022-11-15T07:30:00;8.38;;;5.38;;
37701;SDS011;23548;51.196;6.838;2022-11-15T07:32:26;8.02;;;6.22;;
37701;SDS011;23548;51.196;6.838;2022-11-15T07:34:51;8.57;;;5.15;;
37701;SDS011;23548;51.196;6.838;2022-11-15T07:37:17;6.80;;;4.82;;
37701;SDS011;23548;51.196;6.838;2022-11-15T07:39:43;9.35;;;4.43;;
37701;SDS011;23548;51.196;6.838;2022-11-15T07:42:09;5.28;;;4.15;;
37701;SDS011;23548;51.196;6.838;2022-11-15T07:44:53;4.90;;;4.40;;
37701;SDS011;23548;51.196;6.838;2022-11-15T07:47:19;6.53;;;4.00;;
37701;SDS011;23548;51.196;6.838;2022-11-15T07:49:46;7.63;;;4.72;;
37701;SDS011;23548;51.196;6.838;2022-11-15T07:52:12;5.60;;;4.03;;
37701;SDS011;23548;51.196;6.838;2022-11-15T07:54:38;7.13;;;4.57;;
37701;SDS011;23548;51.196;6.838;2022-11-15T07:57:04;6.10;;;4.50;;
37701;SDS011;23548;51.196;6.838;2022-11-15T07:59:32;8.25;;;4.60;;
37701;SDS011;23548;51.196;6.838;2022-11-15T08:01:58;9.88;;;4.45;;
37701;SDS011;23548;51.196;6.838;2022-11-15T08:04:23;7.45;;;4.03;;
37701;SDS011;23548;51.196;6.838;2022-11-15T08:06:49;7.07;;;4.13;;
37701;SDS011;23548;51.196;6.838;2022-11-15T08:09:15;6.45;;;3.75;;
37701;SDS011;23548;51.196;6.838;2022-11-15T08:11:40;10.82;;;4.63;;
37701;SDS011;23548;51.196;6.838;2022-11-15T08:14:06;5.70;;;4.45;;
37701;SDS011;23548;51.196;6.838;2022-11-15T08:16:32;6.22;;;4.10;;
37701;SDS011;23548;51.196;6.838;2022-11-15T08:18:58;8.70;;;3.90;;
37701;SDS011;23548;51.196;6.838;2022-11-15T08:21:24;9.93;;;3.80;;
37701;SDS011;23548;51.196;6.838;2022-11-15T08:23:49;4.85;;;3.60;;
37701;SDS011;23548;51.196;6.838;2022-11-15T08:26:15;7.70;;;3.97;;
37701;SDS011;23548;51.196;6.838;2022-11-15T08:28:41;8.50;;;4.32;;
37701;SDS011;23548;51.196;6.838;2022-11-15T08:31:12;7.05;;;4.10;;
37701;SDS011;23548;51.196;6.838;2022-11-15T08:33:42;4.43;;;3.83;;
37701;SDS011;23548;51.196;6.838;2022-11-15T08:36:11;5.88;;;3.58;;
37701;SDS011;23548;51.196;6.838;2022-11-15T08:38:39;6.72;;;4.07;;
37701;SDS011;23548;51.196;6.838;2022-11-15T08:41:05;7.35;;;4.10;;
37701;SDS011;23548;51.196;6.838;2022-11-15T08:43:32;8.25;;;4.00;;
37701;SDS011;23548;51.196;6.838;2022-11-15T08:45:58;5.20;;;3.65;;
37701;SDS011;23548;51.196;6.838;2022-11-15T08:48:24;4.68;;;3.63;;
37701;SDS011;23548;51.196;6.838;2022-11-15T08:50:53;7.88;;;4.55;;
37701;SDS011;23548;51.196;6.838;2022-11-15T08:53:20;6.57;;;3.33;;
37701;SDS011;23548;51.196;6.838;2022-11-15T08:55:46;8.13;;;3.30;;
37701;SDS011;23548;51.196;6.838;2022-11-15T08:58:11;6.82;;;3.30;;
37701;SDS011;23548;51.196;6.838;2022-11-15T09:00:37;9.07;;;3.10;;
37701;SDS011;23548;51.196;6.838;2022-11-15T09:03:03;7.47;;;3.50;;
37701;SDS011;23548;51.196;6.838;2022-11-15T09:05:30;4.68;;;2.90;;
37701;SDS011;23548;51.196;6.838;2022-11-15T09:07:56;6.70;;;2.80;;
37701;SDS011;23548;51.196;6.838;2022-11-15T09:10:22;6.25;;;3.03;;
37701;SDS011;23548;51.196;6.838;2022-11-15T09:12:49;4.70;;;3.05;;
37701;SDS011;23548;51.196;6.838;2022-11-15T09:15:15;9.70;;;2.92;;
37701;SDS011;23548;51.196;6.838;2022-11-15T09:17:41;5.97;;;3.45;;
37701;SDS011;23548;51.196;6.838;2022-11-15T09:20:07;10.52;;;3.22;;
37701;SDS011;23548;51.196;6.838;2022-11-15T09:22:34;7.75;;;3.25;;
37701;SDS011;23548;51.196;6.838;2022-11-15T09:25:01;7.22;;;2.92;;
37701;SDS011;23548;51.196;6.838;2022-11-15T09:27:28;8.90;;;3.17;;
37701;SDS011;23548;51.196;6.838;2022-11-15T09:29:54;5.20;;;2.75;;
37701;SDS011;23548;51.196;6.838;2022-11-15T09:32:20;7.03;;;2.67;;
37701;SDS011;23548;51.196;6.838;2022-11-15T09:34:47;10.10;;;2.65;;
37701;SDS011;23548;51.196;6.838;2022-11-15T09:37:12;4.40;;;2.55;;
37701;SDS011;23548;51.196;6.838;2022-11-15T09:39:38;7.78;;;2.85;;
37701;SDS011;23548;51.196;6.838;2022-11-15T09:42:26;6.88;;;2.42;;
37701;SDS011;23548;51.196;6.838;2022-11-15T09:50:20;3.20;;;1.40;;
37701;SDS011;23548;51.196;6.838;2022-11-15T09:53:32;5.13;;;1.80;;
37701;SDS011;23548;51.196;6.838;2022-11-15T09:56:08;2.83;;;2.00;;
37701;SDS011;23548;51.196;6.838;2022-11-15T09:58:50;6.75;;;2.20;;
37701;SDS011;23548;51.196;6.838;2022-11-15T10:04:22;4.07;;;2.30;;
37701;SDS011;23548;51.196;6.838;2022-11-15T10:07:04;2.90;;;1.90;;
37701;SDS011;23548;51.196;6.838;2022-11-15T10:09:54;3.40;;;1.83;;
37701;SDS011;23548;51.196;6.838;2022-11-15T10:12:41;3.58;;;1.60;;
37701;SDS011;23548;51.196;6.838;2022-11-15T10:15:13;4.18;;;1.55;;
37701;SDS011;23548;51.196;6.838;2022-11-15T10:17:55;4.72;;;2.50;;
37701;SDS011;23548;51.196;6.838;2022-11-15T10:20:25;6.45;;;1.67;;
37701;SDS011;23548;51.196;6.838;2022-11-15T10:22:54;6.05;;;2.17;;
37701;SDS011;23548;51.196;6.838;2022-11-15T10:25:25;5.28;;;1.52;;
37701;SDS011;23548;51.196;6.838;2022-11-15T10:27:56;3.50;;;1.80;;
37701;SDS011;23548;51.196;6.838;2022-11-15T10:30:36;4.90;;;2.15;;
37701;SDS011;23548;51.196;6.838;2022-11-15T10:49:22;4.22;;;1.98;;
37701;SDS011;23548;51.196;6.838;2022-11-15T10:52:17;4.18;;;1.80;;
37701;SDS011;23548;51.196;6.838;2022-11-15T10:54:46;4.88;;;1.55;;
37701;SDS011;23548;51.196;6.838;2022-11-15T10:57:15;6.30;;;2.15;;
37701;SDS011;23548;51.196;6.838;2022-11-15T11:00:48;3.00;;;1.50;;
37701;SDS011;23548;51.196;6.838;2022-11-15T11:02:55;6.65;;;2.60;;
37701;SDS011;23548;51.196;6.838;2022-11-15T11:08:01;3.55;;;1.88;;
37701;SDS011;23548;51.196;6.838;2022-11-15T11:10:29;4.80;;;1.83;;
37701;SDS011;23548;51.196;6.838;2022-11-15T11:12:55;5.50;;;1.50;;
37701;SDS011;23548;51.196;6.838;2022-11-15T11:15:22;10.82;;;6.10;;
37701;SDS011;23548;51.196;6.838;2022-11-15T11:20:41;9.07;;;1.65;;
37701;SDS011;23548;51.196;6.838;2022-11-15T11:31:23;6.75;;;2.72;;
37701;SDS011;23548;51.196;6.838;2022-11-15T11:36:52;6.40;;;3.90;;
37701;SDS011;23548;51.196;6.838;2022-11-15T11:42:12;8.13;;;2.60;;
37701;SDS011;23548;51.196;6.838;2022-11-15T11:50:26;14.52;;;2.80;;
37701;SDS011;23548;51.196;6.838;2022-11-15T11:58:24;3.92;;;1.73;;
37701;SDS011;23548;51.196;6.838;2022-11-15T12:00:52;9.13;;;1.42;;
37701;SDS011;23548;51.196;6.838;2022-11-15T12:06:21;2.40;;;1.00;;
37701;SDS011;23548;51.196;6.838;2022-11-15T12:08:56;3.65;;;1.08;;
37701;SDS011;23548;51.196;6.838;2022-11-15T12:11:51;6.20;;;1.20;;
37701;SDS011;23548;51.196;6.838;2022-11-15T12:14:32;12.00;;;1.05;;
37701;SDS011;23548;51.196;6.838;2022-11-15T12:17:04;8.77;;;1.50;;
37701;SDS011;23548;51.196;6.838;2022-11-15T12:19:29;3.15;;;1.08;;
37701;SDS011;23548;51.196;6.838;2022-11-15T12:22:03;8.05;;;1.60;;
37701;SDS011;23548;51.196;6.838;2022-11-15T12:25:13;6.53;;;1.50;;
37701;SDS011;23548;51.196;6.838;2022-11-15T12:27:20;10.45;;;2.75;;
37701;SDS011;23548;51.196;6.838;2022-11-15T12:30:04;3.05;;;0.98;;
37701;SDS011;23548;51.196;6.838;2022-11-15T12:32:38;8.00;;;1.40;;
37701;SDS011;23548;51.196;6.838;2022-11-15T12:35:21;4.60;;;1.00;;
37701;SDS011;23548;51.196;6.838;2022-11-15T12:38:13;6.22;;;1.50;;
37701;SDS011;23548;51.196;6.838;2022-11-15T12:41:16;7.25;;;1.45;;
37701;SDS011;23548;51.196;6.838;2022-11-15T12:43:43;4.15;;;1.15;;
37701;SDS011;23548;51.196;6.838;2022-11-15T12:46:20;5.70;;;1.50;;
37701;SDS011;23548;51.196;6.838;2022-11-15T12:48:54;4.25;;;1.60;;
37701;SDS011;23548;51.196;6.838;2022-11-15T13:02:30;5.10;;;1.00;;
37701;SDS011;23548;51.196;6.838;2022-11-15T13:07:55;4.85;;;1.02;;
37701;SDS011;23548;51.196;6.838;2022-11-15T13:17:49;5.15;;;1.38;;
37701;SDS011;23548;51.196;6.838;2022-11-15T13:25:32;8.00;;;1.58;;
37701;SDS011;23548;51.196;6.838;2022-11-15T13:31:00;4.20;;;1.10;;
37701;SDS011;23548;51.196;6.838;2022-11-15T13:33:39;3.85;;;1.05;;
37701;SDS011;23548;51.196;6.838;2022-11-15T13:36:06;4.03;;;1.20;;
37701;SDS011;23548;51.196;6.838;2022-11-15T13:38:39;7.00;;;1.42;;
37701;SDS011;23548;51.196;6.838;2022-11-15T13:43:48;5.70;;;2.22;;
37701;SDS011;23548;51.196;6.838;2022-11-15T13:48:54;5.65;;;1.15;;
37701;SDS011;23548;51.196;6.838;2022-11-15T13:56:45;3.83;;;0.90;;
37701;SDS011;23548;51.196;6.838;2022-11-15T13:59:28;5.22;;;1.17;;
37701;SDS011;23548;51.196;6.838;2022-11-15T14:02:25;4.10;;;1.30;;
37701;SDS011;23548;51.196;6.838;2022-11-15T14:04:55;3.00;;;1.10;;
37701;SDS011;23548;51.196;6.838;2022-11-15T14:07:26;4.45;;;1.40;;
37701;SDS011;23548;51.196;6.838;2022-11-15T14:09:53;4.68;;;1.42;;
37701;SDS011;23548;51.196;6.838;2022-11-15T14:12:24;5.05;;;1.90;;
37701;SDS011;23548;51.196;6.838;2022-11-15T14:14:58;6.10;;;1.35;;
37701;SDS011;23548;51.196;6.838;2022-11-15T14:19:53;6.40;;;1.60;;
37701;SDS011;23548;51.196;6.838;2022-11-15T14:22:21;7.55;;;1.80;;
37701;SDS011;23548;51.196;6.838;2022-11-15T14:27:31;5.50;;;2.00;;
37701;SDS011;23548;51.196;6.838;2022-11-15T14:29:58;6.22;;;2.17;;
37701;SDS011;23548;51.196;6.838;2022-11-15T14:32:24;7.00;;;2.42;;
37701;SDS011;23548;51.196;6.838;2022-11-15T14:34:58;8.23;;;2.50;;
37701;SDS011;23548;51.196;6.838;2022-11-15T14:37:29;4.82;;;2.63;;
37701;SDS011;23548;51.196;6.838;2022-11-15T14:39:59;6.00;;;2.42;;
37701;SDS011;23548;51.196;6.838;2022-11-15T14:42:25;5.18;;;2.78;;
37701;SDS011;23548;51.196;6.838;2022-11-15T14:44:51;5.45;;;2.92;;
37701;SDS011;23548;51.196;6.838;2022-11-15T14:47:17;5.95;;;2.63;;
37701;SDS011;23548;51.196;6.838;2022-11-15T14:49:43;8.00;;;2.58;;
37701;SDS011;23548;51.196;6.838;2022-11-15T14:54:50;4.43;;;2.50;;
37701;SDS011;23548;51.196;6.838;2022-11-15T14:57:16;4.65;;;2.78;;
37701;SDS011;23548;51.196;6.838;2022-11-15T14:59:42;5.97;;;2.85;;
37701;SDS011;23548;51.196;6.838;2022-11-15T15:02:09;4.68;;;3.03;;
37701;SDS011;23548;51.196;6.838;2022-11-15T15:04:41;3.75;;;2.63;;
37701;SDS011;23548;51.196;6.838;2022-11-15T15:07:07;5.97;;;3.10;;
37701;SDS011;23548;51.196;6.838;2022-11-15T15:09:33;4.53;;;2.88;;
37701;SDS011;23548;51.196;6.838;2022-11-15T15:11:58;5.70;;;2.58;;
37701;SDS011;23548;51.196;6.838;2022-11-15T15:14:24;4.78;;;2.83;;
37701;SDS011;23548;51.196;6.838;2022-11-15T15:16:49;6.22;;;2.72;;
37701;SDS011;23548;51.196;6.838;2022-11-15T15:19:15;4.05;;;2.83;;
37701;SDS011;23548;51.196;6.838;2022-11-15T15:21:41;4.75;;;2.78;;
37701;SDS011;23548;51.196;6.838;2022-11-15T15:24:08;4.22;;;2.72;;
37701;SDS011;23548;51.196;6.838;2022-11-15T15:26:39;4.70;;;2.70;;
37701;SDS011;23548;51.196;6.838;2022-11-15T15:29:05;4.88;;;2.40;;
37701;SDS011;23548;51.196;6.838;2022-11-15T15:31:33;5.60;;;2.58;;
37701;SDS011;23548;51.196;6.838;2022-11-15T15:33:59;5.75;;;3.35;;
37701;SDS011;23548;51.196;6.838;2022-11-15T15:36:25;9.93;;;2.40;;
37701;SDS011;23548;51.196;6.838;2022-11-15T15:38:51;5.85;;;2.88;;
37701;SDS011;23548;51.196;6.838;2022-11-15T15:41:17;3.35;;;2.42;;
37701;SDS011;23548;51.196;6.838;2022-11-15T15:43:43;6.22;;;2.90;;
37701;SDS011;23548;51.196;6.838;2022-11-15T15:46:10;4.13;;;3.05;;
37701;SDS011;23548;51.196;6.838;2022-11-15T15:48:38;4.10;;;2.35;;
37701;SDS011;23548;51.196;6.838;2022-11-15T15:51:04;6.00;;;2.67;;
37701;SDS011;23548;51.196;6.838;2022-11-15T15:53:31;4.38;;;2.30;;
37701;SDS011;23548;51.196;6.838;2022-11-15T15:55:57;6.45;;;2.20;;
37701;SDS011;23548;51.196;6.838;2022-11-15T15:58:22;6.18;;;2.88;;
37701;SDS011;23548;51.196;6.838;2022-11-15T16:00:48;3.95;;;2.30;;
37701;SDS011;23548;51.196;6.838;2022-11-15T16:03:14;4.88;;;2.50;;
37701;SDS011;23548;51.196;6.838;2022-11-15T16:05:40;4.07;;;2.60;;
37701;SDS011;23548;51.196;6.838;2022-11-15T16:08:07;6.60;;;2.40;;
37701;SDS011;23548;51.196;6.838;2022-11-15T16:10:43;3.72;;;2.50;;
37701;SDS011;23548;51.196;6.838;2022-11-15T16:13:09;5.90;;;2.30;;
37701;SDS011;23548;51.196;6.838;2022-11-15T16:15:34;11.35;;;2.45;;
37701;SDS011;23548;51.196;6.838;2022-11-15T16:18:01;4.88;;;2.45;;
37701;SDS011;23548;51.196;6.838;2022-11-15T16:20:35;4.43;;;2.30;;
37701;SDS011;23548;51.196;6.838;2022-11-15T16:23:06;4.35;;;2.58;;
37701;SDS011;23548;51.196;6.838;2022-11-15T16:25:34;4.63;;;2.42;;
37701;SDS011;23548;51.196;6.838;2022-11-15T16:28:23;3.78;;;2.50;;
37701;SDS011;23548;51.196;6.838;2022-11-15T16:31:09;4.47;;;2.40;;
37701;SDS011;23548;51.196;6.838;2022-11-15T16:33:36;5.07;;;2.00;;
37701;SDS011;23548;51.196;6.838;2022-11-15T16:36:03;4.15;;;2.50;;
37701;SDS011;23548;51.196;6.838;2022-11-15T16:38:29;5.03;;;2.45;;
37701;SDS011;23548;51.196;6.838;2022-11-15T16:40:55;3.97;;;2.20;;
37701;SDS011;23548;51.196;6.838;2022-11-15T16:43:21;7.75;;;2.72;;
37701;SDS011;23548;51.196;6.838;2022-11-15T16:45:48;3.78;;;2.22;;
37701;SDS011;23548;51.196;6.838;2022-11-15T16:48:23;5.78;;;3.38;;
37701;SDS011;23548;51.196;6.838;2022-11-15T16:50:50;4.95;;;2.72;;
37701;SDS011;23548;51.196;6.838;2022-11-15T16:53:20;3.97;;;2.67;;
37701;SDS011;23548;51.196;6.838;2022-11-15T16:55:46;3.90;;;2.75;;
37701;SDS011;23548;51.196;6.838;2022-11-15T16:58:11;3.95;;;2.40;;
37701;SDS011;23548;51.196;6.838;2022-11-15T17:00:37;3.42;;;2.42;;
37701;SDS011;23548;51.196;6.838;2022-11-15T17:03:03;4.72;;;2.55;;
37701;SDS011;23548;51.196;6.838;2022-11-15T17:05:29;5.53;;;3.00;;
37701;SDS011;23548;51.196;6.838;2022-11-15T17:07:54;6.45;;;3.28;;
37701;SDS011;23548;51.196;6.838;2022-11-15T17:10:22;8.55;;;4.00;;
37701;SDS011;23548;51.196;6.838;2022-11-15T17:12:49;7.00;;;4.22;;
37701;SDS011;23548;51.196;6.838;2022-11-15T17:15:16;8.70;;;4.10;;
37701;SDS011;23548;51.196;6.838;2022-11-15T17:17:42;7.72;;;5.03;;
37701;SDS011;23548;51.196;6.838;2022-11-15T17:20:15;8.07;;;4.85;;
37701;SDS011;23548;51.196;6.838;2022-11-15T17:22:42;7.78;;;3.53;;
37701;SDS011;23548;51.196;6.838;2022-11-15T17:25:08;8.50;;;3.70;;